カーブル の空港の天気 - METARとTAF

カーブル国際空港 ( OAKB / KBL ) - アフガニスタン カーブル
飛行場実況気象(Metar)
観測時間02/28 04:20 AFT (02/27 23:50 UTC)
風向・風速北北西 3m/s
視程10km以上
天気現象
全天を覆う雲 雲底高度 2440m
気温8℃
湿度42%
気圧1020hPa
METAROAKB 272350Z 33006KT 9999 OVC080 08/M04 Q1020 NOSIG RMK BLU BLU
過去の天気等 Google飛行場航空写真 Wunderground天気予報

過去48時間のMETAR

飛行場予報(TAF)
発表時間: 2/28 03:35 AFT (2/27 23:05 UTC)
予報対象時間: 28日4時 AFT ~ 1日4時 AFT
風向・風速不定 1m/s
視程10km以上
全天の4割程度の雲 雲底高度 1,830m
全天の8割程度の雲 雲底高度 2,740m
28日5時 AFT ~ 28日7時 AFT に徐々に
視程4,000m
天気現象弱いしゅう雨 もや
全天の4割程度の雲 雲底高度 610m
全天の8割程度の雲 雲底高度 1,830m
28日8時 AFT ~ 28日10時 AFT に徐々に
風向・風速西 5m/s
28日14時 AFT ~ 28日17時 AFT に 確率 30% で一時的に
天気現象周辺で雷
少しの積乱雲 雲底高度 610m
全天の8割程度の雲 雲底高度 1,830m
28日20時 AFT ~ 28日22時 AFT に徐々に
風向・風速不定 1m/s
視程6,000m
全天の4割程度の雲 雲底高度 3,350m
28日22時 AFT ~ 1日24時 AFT に徐々に
視程4,500m
天気現象
TAF OAKB 272305Z 2800/2824 VRB02KT 9999 SCT060 BKN090
BECMG 2801/2803 4000 -SHRA BR SCT020 BKN060
BECMG 2804/2806 27010KT
PROB30 TEMPO 2810/2813 VCTS FEW020CB BKN060
BECMG 2816/2818 VRB02KT 6000 SCT110
BECMG 2818/2820 4500 FU